KHOB

Lea County Regional Airport

Hobbs, New Mexico, USA
METAR KHOB 171550Z VRB05KT 10SM SKC 28/18 A3017
Observed Flight Rules
Aug-17 @ 15:50 UTC (an hour ago) Visual Flight Rules
Wind Visibility Clouds
Variable at 5 knots 10 miles
  • Clear skies
Temperatures Readings
Current 28°C / 82°F
Dewpoint 18°C / 64°F
Humidity 55%
Altimeter 30.17" Hg
Pressure 1022 hPa
Elevation 1115
METAR KHOB 171550Z VRB05KT 10SM SKC 28/18 A3017
Observed Flight Rules
Aug-17 @ 15:50 UTC
(an hour ago)
VFR
Wind Visibility
Variable at 5 knots 10 miles
Clouds
  • Clear skies
Temperature Dewpoint
28°C / 82°F 18°C / 64°F
Humidity Altimeter Pressure
55% 30.17" Hg 1022 hPa